• Join FlightAware (Why Join?)
  • Login
  • US Flag 
05:27AM EDT


 

Airport Tracker/Info


-or-


 

Live Flight TrackerFlight Track Log ✈ AAL1459 ✈ 20-Apr-2013 ✈ KBOS - KORD

Flight Track Log - Related Links

Times and Time Zones

All times are in EDT time to prevent confusion due to time zone crossing. See the AAL1459 flight status page for this flight to view local times or setup timezone preferences in your user account.

Time Position Orientation Groundspeed Altitude Reporting Facility
EDT Latitude Longitude Course Direction KTS MPH feet Rate Location/Type
02:19PM 42.4050 -71.0690 303° West 208 239 2,400  Level FlightAware
02:20PM 42.4320 -71.1270 302° West 234 269 4,100 2,280 Climbing FlightAware
02:21PM 42.4630 -71.1630 319° Northwest 253 291 5,700 2,760 Climbing FlightAware
02:21PM 42.4790 -71.1680 347° North 257 296 6,400 2,220 Climbing FlightAware
02:21PM 42.5100 -71.1780 347° North 278 320 7,200 2,400 Climbing FlightAware
02:22PM 42.5490 -71.1930 344° North 286 329 8,600 2,700 Climbing FlightAware
02:22PM 42.5890 -71.2070 346° North 298 343 9,900 1,920 Climbing FlightAware
02:23PM 42.6440 -71.2270 345° North 339 390 10,900 1,680 Climbing FlightAware
02:24PM 42.7100 -71.2500 346° North 374 430 12,200 2,280 Climbing FlightAware
02:24PM 42.7570 -71.2780 336° Northwest 349 402 13,600 2,700 Climbing FlightAware
02:25PM 42.7830 -71.3260 306° West 317 365 14,900 2,760 Climbing FlightAware
02:25PM 42.7930 -71.3920 282° West 309 356 16,600 2,700 Climbing FlightAware
02:26PM 42.8010 -71.4780 277° West 321 369 18,500 2,460 Climbing FlightAware
02:27PM 42.8090 -71.5640 277° West 334 384 20,100 2,460 Climbing FlightAware
02:27PM 42.8180 -71.6570 278° West 339 390 22,000 2,460 Climbing FlightAware
02:28PM 42.8270 -71.7560 277° West 344 396 23,800 2,220 Climbing FlightAware
02:29PM 42.8360 -71.8430 278° West 347 399 25,200 1,980 Climbing FlightAware
02:29PM 42.8440 -71.9280 277° West 351 404 26,500 1,860 Climbing FlightAware
02:30PM 42.8530 -72.0260 277° West 353 406 27,900 1,800 Climbing FlightAware
02:31PM 42.8610 -72.1140 277° West 356 410 29,100 1,620 Climbing FlightAware
02:32PM 42.8690 -72.2030 277° West 358 412 30,100 1,680 Climbing FlightAware
02:32PM 42.8780 -72.3060 277° West 356 410 31,500 1,680 Climbing FlightAware
02:33PM 42.8860 -72.3950 277° West 358 412 32,500 1,380 Climbing FlightAware
02:34PM 42.8940 -72.4860 277° West 358 412 33,400 1,320 Climbing FlightAware
02:34PM 42.9020 -72.5720 277° West 356 410 34,300 1,260 Climbing FlightAware
02:35PM 42.9110 -72.6820 276° West 357 411 35,300 1,080 Climbing FlightAware
02:36PM 42.9190 -72.7730 277° West 358 412 36,000 1,080 Climbing FlightAware
02:37PM 42.9300 -72.8960 277° West 353 406 37,100 1,020 Climbing FlightAware
02:37PM 42.9380 -72.9950 276° West 355 409 37,700 600 Climbing FlightAware
02:38PM 42.9450 -73.0850 276° West 362 417 38,000 120 Climbing FlightAware
02:39PM 42.9560 -73.2130 277° West 363 418 38,000  Level FlightAware
02:40PM 42.9630 -73.3020 276° West 367 422 38,000  Level FlightAware
02:41PM 42.9740 -73.4430 276° West 370 426 38,000  Level FlightAware
02:41PM 42.9810 -73.5340 276° West 370 426 38,000  Level FlightAware
02:42PM 42.9890 -73.6270 277° West 373 429 38,000  Level FlightAware
02:43PM 42.9970 -73.7310 276° West 374 430 38,000  Level FlightAware
02:43PM 43.0040 -73.8250 276° West 373 429 38,000  Level FlightAware
02:44PM 43.0120 -73.9310 276° West 377 434 38,000  Level FlightAware
02:45PM 43.0190 -74.0250 276° West 380 437 38,000  Level FlightAware
02:46PM 43.0270 -74.1340 276° West 380 437 38,000  Level FlightAware
02:46PM 43.0350 -74.2320 276° West 382 440 38,000  Level FlightAware
02:47PM 43.0390 -74.2970 275° West 382 440 38,000  Level FlightAware
02:48PM 43.0550 -74.5140 276° West 376 433 38,000  Level FlightAware
02:49PM 43.0610 -74.6020 275° West 377 434 38,000  Level FlightAware
02:50PM 43.0690 -74.7190 275° West 377 434 38,000  Level FlightAware
02:50PM 43.0750 -74.8040 276° West 377 434 38,000  Level FlightAware
02:51PM 43.0820 -74.9170 275° West 381 438 38,000  Level FlightAware
02:52PM 43.0890 -75.0160 276° West 383 441 38,000  Level FlightAware
02:53PM 43.0960 -75.1230 275° West 385 443 38,000  Level FlightAware
02:53PM 43.1020 -75.2200 275° West 387 445 38,000  Level FlightAware
02:54PM 43.1080 -75.3190 275° West 388 447 38,000  Level FlightAware
02:55PM 43.1150 -75.4270 275° West 388 447 38,000  Level FlightAware
02:55PM 43.1210 -75.5280 275° West 387 445 38,000  Level FlightAware
02:56PM 43.1280 -75.6370 275° West 385 443 38,000  Level FlightAware
02:57PM 43.1330 -75.7330 274° West 384 442 38,000  Level FlightAware
02:58PM 43.1400 -75.8380 275° West 383 441 38,000  Level FlightAware
02:58PM 43.1450 -75.9230 275° West 382 440 38,000  Level FlightAware
02:59PM 43.1510 -76.0320 274° West 381 438 38,000  Level FlightAware
03:00PM 43.1570 -76.1420 274° West 381 438 38,000  Level FlightAware
03:00PM 43.1600 -76.2370 273° West 374 430 38,000  Level FlightAware
03:01PM 43.1610 -76.3440 271° West 374 430 38,000  Level FlightAware
03:02PM 43.1600 -76.4380 269° West 374 430 38,000  Level FlightAware
03:02PM 43.1610 -76.5320 271° West 374 430 38,000  Level FlightAware
03:03PM 43.1600 -76.6380 269° West 374 430 38,000  Level FlightAware
03:04PM 43.1600 -76.7310 270° West 375 432 38,000  Level FlightAware
03:04PM 43.1590 -76.8150 269° West 377 434 38,000  Level FlightAware
03:05PM 43.1590 -76.9340 270° West 376 433 38,000  Level FlightAware
03:06PM 43.1580 -77.0310 269° West 375 432 38,000  Level FlightAware
03:07PM 43.1570 -77.1360 269° West 373 429 38,000  Level FlightAware
03:07PM 43.1570 -77.2310 270° West 373 429 38,000  Level FlightAware
03:08PM 43.1560 -77.3370 269° West 373 429 38,000  Level FlightAware
03:09PM 43.1550 -77.4310 269° West 378 435 38,000  Level FlightAware
03:09PM 43.1540 -77.5170 269° West 378 435 38,000  Level FlightAware
03:10PM 43.1530 -77.6350 269° West 379 436 38,000  Level FlightAware
03:11PM 43.1520 -77.7300 269° West 380 437 38,000  Level FlightAware
03:11PM 43.1500 -77.8250 268° West 380 437 38,000  Level FlightAware
03:12PM 43.1490 -77.9340 269° West 382 440 38,000  Level FlightAware
03:13PM 43.1470 -78.0290 268° West 383 441 38,000  Level FlightAware
03:14PM 43.1460 -78.1410 269° West 384 442 38,000  Level FlightAware
03:14PM 43.1440 -78.2370 268° West 386 444 38,000  Level FlightAware
03:15PM 43.1420 -78.3480 269° West 387 445 38,000  Level FlightAware
03:16PM 43.1400 -78.4320 268° West 386 444 38,000  Level FlightAware
03:16PM 43.1370 -78.5400 268° West 386 444 38,000  Level FlightAware
03:17PM 43.1350 -78.6400 268° West 386 444 38,000  Level FlightAware
03:18PM 43.1320 -78.7500 268° West 386 444 38,000  Level FlightAware
03:18PM 43.1290 -78.8480 268° West 387 445 38,000  Level FlightAware
03:19PM 43.1250 -78.9580 267° West 387 445 38,000  Level FlightAware
03:20PM 43.1240 -79.0550 269° West 387 445 38,000  Level FlightAware
03:21PM 43.1230 -79.1650 269° West 384 442 38,000  Level FlightAware
03:21PM 43.1210 -79.2610 268° West 383 441 38,000  Level FlightAware
03:22PM 43.1190 -79.3700 269° West 381 438 38,000  Level FlightAware
03:23PM 43.1180 -79.4650 269° West 380 437 38,000  Level FlightAware
03:23PM 43.1160 -79.5560 268° West 379 436 38,000  Level FlightAware
03:24PM 43.1140 -79.6700 269° West 381 438 38,000  Level FlightAware
03:25PM 43.1120 -79.7670 268° West 387 445 38,000  Level FlightAware
03:26PM 43.1100 -79.8720 269° West 388 447 38,000  Level FlightAware
03:26PM 43.1090 -79.9730 269° West 388 447 38,000  Level FlightAware
03:27PM 43.1060 -80.0720 268° West 389 448 38,000  Level FlightAware
03:28PM 43.1040 -80.1710 268° West 392 451 38,000  Level FlightAware
03:28PM 43.1010 -80.2820 268° West 394 453 38,000  Level FlightAware
03:29PM 43.0990 -80.3920 269° West 395 455 38,000  Level FlightAware
03:30PM 43.0960 -80.4940 268° West 395 455 38,000  Level FlightAware
03:30PM 43.0940 -80.5900 268° West 396 456 38,000  Level FlightAware
03:31PM 43.0910 -80.7040 268° West 395 455 38,000  Level FlightAware
03:32PM 43.0880 -80.8050 268° West 394 453 38,000  Level FlightAware
03:33PM 43.0840 -80.9170 267° West 393 452 38,000  Level FlightAware
03:33PM 43.0820 -81.0150 268° West 392 451 38,000  Level FlightAware
03:34PM 43.0790 -81.1140 268° West 390 449 38,000  Level FlightAware
03:35PM 43.0760 -81.2130 268° West 388 447 38,000  Level FlightAware
03:35PM 43.0720 -81.3210 267° West 386 444 38,000  Level FlightAware
03:36PM 43.0690 -81.4190 268° West 385 443 38,000  Level FlightAware
03:37PM 43.0650 -81.5290 267° West 385 443 38,000  Level FlightAware
03:37PM 43.0620 -81.6230 268° West 388 447 38,000  Level FlightAware
03:38PM 43.0580 -81.7310 267° West 388 447 38,000  Level FlightAware
03:39PM 43.0540 -81.8330 267° West 389 448 38,000  Level FlightAware
03:39PM 43.0510 -81.9300 268° West 393 452 38,000  Level FlightAware
03:40PM 43.0460 -82.0370 266° West 394 453 38,000  Level FlightAware
03:41PM 43.0430 -82.1290 267° West 395 455 38,000  Level FlightAware
03:42PM 43.0370 -82.2750 267° West 395 455 38,000  Level FlightAware
03:43PM 43.0320 -82.3800 266° West 397 457 38,000  Level FlightAware
03:43PM 43.0290 -82.4740 268° West 397 457 38,000  Level FlightAware
03:44PM 43.0230 -82.5950 266° West 398 458 38,000  Level FlightAware
03:45PM 43.0190 -82.6910 267° West 399 459 38,000  Level FlightAware
03:45PM 43.0140 -82.7940 266° West 400 460 38,000  Level FlightAware
03:46PM 43.0090 -82.9010 266° West 400 460 38,000  Level FlightAware
03:47PM 43.0030 -83.0340 267° West 400 460 38,000  Level FlightAware
03:48PM 42.9970 -83.1600 266° West 401 461 38,000  Level FlightAware
03:48PM 42.9930 -83.2420 266° West 403 464 38,000  Level FlightAware
03:49PM 42.9870 -83.3580 266° West 403 464 38,000  Level FlightAware
03:50PM 42.9810 -83.4830 266° West 403 464 38,000  Level FlightAware
03:50PM 42.9750 -83.5870 266° West 405 466 38,000  Level FlightAware
03:51PM 42.9700 -83.6830 266° West 405 466 38,000  Level FlightAware
03:52PM 42.9620 -83.7980 265° West 405 466 38,000 -180 Level FlightAware
03:52PM 42.9510 -83.9080 262° West 404 465 37,800 -720 Descending FlightAware
03:53PM 42.9400 -84.0260 263° West 397 457 37,000 -960 Descending FlightAware
03:54PM 42.9300 -84.1280 262° West 391 450 36,400 -1,080 Descending FlightAware
03:55PM 42.9200 -84.2280 262° West 388 447 35,600 -1,440 Descending FlightAware
03:55PM 42.9090 -84.3360 262° West 388 447 34,400 -1,680 Descending FlightAware
03:56PM 42.9000 -84.4310 263° West 381 438 33,300 -1,680 Descending FlightAware
03:57PM 42.8900 -84.5270 262° West 382 440 32,200 -960 Descending FlightAware
03:57PM 42.8790 -84.6340 262° West 388 447 32,000 -180 Descending FlightAware
03:58PM 42.8680 -84.7350 262° West 389 448 32,000  Level FlightAware
03:59PM 42.8570 -84.8440 262° West 390 449 32,000  Level FlightAware
04:00PM 42.8470 -84.9390 262° West 387 445 32,000  Level FlightAware
04:00PM 42.8370 -85.0340 262° West 383 441 32,000  Level FlightAware
04:01PM 42.8260 -85.1420 262° West 382 440 32,000  Level FlightAware
04:02PM 42.8150 -85.2380 261° West 372 428 32,000  Level FlightAware
04:02PM 42.8040 -85.3340 261° West 338 389 32,000 -180 Level FlightAware
04:03PM 42.7950 -85.4180 262° West 336 387 31,800 -720 Descending FlightAware
04:04PM 42.7860 -85.5020 262° West 333 383 31,100 -1,080 Descending FlightAware
04:04PM 42.7700 -85.5900 256° West 328 377 30,300 -1,380 Descending FlightAware
04:05PM 42.7570 -85.6660 257° West 317 365 29,200 -1,800 Descending FlightAware
04:06PM 42.7410 -85.7540 256° West 306 352 27,800 -1,800 Descending FlightAware
04:07PM 42.7280 -85.8250 256° West 298 343 26,700 -1,680 Descending FlightAware
04:07PM 42.7150 -85.8980 256° West 289 333 25,600 -1,920 Descending FlightAware
04:08PM 42.6990 -85.9820 255° West 313 360 24,000 -1,920 Descending FlightAware
04:09PM 42.6860 -86.0550 256° West 325 374 22,900 -1,920 Descending FlightAware
04:09PM 42.6710 -86.1380 256° West 324 373 21,500 -1,980 Descending FlightAware
04:10PM 42.6540 -86.2260 255° West 326 375 20,100 -1,380 Descending FlightAware
04:11PM 42.6400 -86.3000 256° West 323 372 19,600 -1,080 Descending FlightAware
04:11PM 42.6230 -86.3920 256° West 313 360 18,600 -1,440 Descending FlightAware
04:12PM 42.6090 -86.4680 256° West 310 357 17,600 -1,500 Descending FlightAware
04:13PM 42.5950 -86.5430 256° West 307 353 16,600 -1,440 Descending FlightAware
04:14PM 42.5800 -86.6240 256° West 303 349 15,600 -1,380 Descending FlightAware
04:14PM 42.5660 -86.6980 256° West 298 343 14,700 -1,320 Descending FlightAware
04:15PM 42.5470 -86.7760 252° West 298 343 13,800 -1,380 Descending FlightAware
04:16PM 42.5260 -86.8500 249° West 297 342 12,800 -1,380 Descending FlightAware
04:16PM 42.5050 -86.9280 250° West 299 344 11,900 -1,320 Descending FlightAware
04:17PM 42.4860 -86.9990 250° West 290 334 11,000 -1,320 Descending FlightAware
04:18PM 42.4660 -87.0740 250° West 281 323 10,100 -1,140 Descending FlightAware
04:18PM 42.4550 -87.1130 249° West 267 307 9,700 -780 Descending FlightAware
04:19PM 42.4420 -87.1620 250° West 262 302 9,400 -660 Descending FlightAware
04:19PM 42.4310 -87.2000 249° West 262 302 9,100 -660 Descending FlightAware
04:20PM 42.4160 -87.2440 245° Southwest 271 312 8,800 -540 Descending FlightAware
04:20PM 42.4030 -87.2570 216° Southwest 280 322 8,700 -240 Descending FlightAware
04:20PM 42.3840 -87.2630 193° South 287 330 8,700  Level FlightAware
04:21PM 42.3470 -87.2610 178° South 287 330 8,700 -240 Level FlightAware
04:21PM 42.3090 -87.2630 182° South 285 328 8,500 -1,020 Descending FlightAware
04:21PM 42.2750 -87.2650 182° South 287 330 7,800 -1,680 Descending FlightAware
04:22PM 42.2350 -87.2680 183° South 281 323 7,000 -1,320 Descending FlightAware
04:22PM 42.1970 -87.2790 192° South 268 308 6,500 -1,020 Descending FlightAware
04:23PM 42.1690 -87.2870 192° South 260 299 6,100 -1,020 Descending FlightAware
04:23PM 42.1330 -87.2970 192° South 257 296 5,600 -1,080 Descending FlightAware
04:24PM 42.1150 -87.3020 192° South 257 296 5,300 -900 Descending FlightAware
04:24PM 42.0860 -87.3100 192° South 259 298 5,000 -600 Descending FlightAware
04:24PM 42.0700 -87.3140 191° South 260 299 4,900 -420 Descending FlightAware
04:25PM 42.0340 -87.3300 198° South 250 288 4,700 -300 Descending FlightAware
04:25PM 42.0260 -87.3420 228° Southwest 246 283 4,700  Level FlightAware
04:25PM 42.0060 -87.3790 234° Southwest 244 281 4,700  Level FlightAware
04:26PM 41.9880 -87.4150 236° Southwest 236 272 4,700  Level FlightAware
04:26PM 41.9840 -87.4510 262° West 241 277 4,700  Level FlightAware
04:27PM 41.9830 -87.4750 267° West 242 278 4,700  Level FlightAware
04:27PM 41.9830 -87.5110 270° West 241 277 4,700  Level FlightAware
04:28PM 41.9840 -87.5540 272° West 219 252 4,700  Level FlightAware
04:28PM 41.9840 -87.5950 270° West 205 236 4,700 -360 Level FlightAware
04:28PM 41.9840 -87.6230 270° West 205 236 4,400 -960 Descending FlightAware
04:29PM 41.9840 -87.6490 270° West 204 235 4,000 -1,140 Descending FlightAware
04:29PM 41.9840 -87.6990 270° West 203 234 3,300 -1,080 Descending FlightAware
04:30PM 41.9840 -87.7100 270° West 204 235 3,100 -1,200 Descending FlightAware
04:30PM 41.9840 -87.7710 270° West 189 217 2,200 -1,200 Descending FlightAware
04:31PM 41.9840 -87.7980 270° West 164 189 1,700 -1,080 Descending FlightAware
04:31PM 41.9840 -87.8110 270° West 150 173 1,500 -780 Descending FlightAware
04:32PM 41.9840 -87.8480 270° West 144 166 1,000 -780 Descending FlightAware
04:32PM 41.9840 -87.8720 270° West 140 161 600 -780 Descending FlightAware
04:33PM 41.9840 -87.8940 270° West 137 158 300 -720 Descending FlightAware